createdAt,value
2018-04-14T00:01:12.530Z,63.83
2018-04-14T00:03:40.007Z,65.10
2018-04-14T00:06:07.494Z,67.00
2018-04-14T00:08:34.984Z,63.00
2018-04-14T00:11:02.474Z,64.60
2018-04-14T00:13:30.017Z,62.40
2018-04-14T00:15:58.287Z,67.40
2018-04-14T00:18:26.533Z,64.97
2018-04-14T00:20:54.014Z,63.67
2018-04-14T00:23:21.495Z,65.90
2018-04-14T00:25:48.982Z,60.87
2018-04-14T00:28:16.462Z,66.93
2018-04-14T00:30:43.949Z,65.87
2018-04-14T00:33:11.419Z,64.77
2018-04-14T00:35:39.670Z,61.17
2018-04-14T00:38:07.145Z,63.43
2018-04-14T00:40:35.398Z,66.77
2018-04-14T00:43:02.874Z,64.90
2018-04-14T00:45:30.363Z,62.63
2018-04-14T00:47:57.842Z,68.53
2018-04-14T00:50:25.331Z,69.97
2018-04-14T00:52:52.800Z,69.00
2018-04-14T00:55:20.646Z,66.30
2018-04-14T00:57:48.129Z,67.67
2018-04-14T01:00:15.613Z,67.03
2018-04-14T01:02:43.097Z,67.43
2018-04-14T01:05:10.585Z,67.10
2018-04-14T01:07:38.058Z,65.17
2018-04-14T01:10:05.546Z,65.73
2018-04-14T01:12:34.060Z,63.17
2018-04-14T01:15:01.555Z,65.63
2018-04-14T01:17:30.550Z,65.47
2018-04-14T01:19:58.035Z,64.77
2018-04-14T01:22:26.291Z,65.70
2018-04-14T01:24:53.771Z,64.90
2018-04-14T01:27:22.039Z,64.80
2018-04-14T01:29:49.522Z,64.70
2018-04-14T01:32:17.025Z,62.60
2018-04-14T01:34:44.494Z,61.07
2018-04-14T01:37:11.981Z,61.37
2018-04-14T01:39:40.226Z,63.37
2018-04-14T01:42:07.718Z,66.67
2018-04-14T01:44:35.967Z,65.83
2018-04-14T01:47:03.457Z,63.10
2018-04-14T01:49:31.690Z,61.13
2018-04-14T01:51:59.950Z,66.23
2018-04-14T01:54:27.433Z,66.50
2018-04-14T01:56:54.926Z,71.50
2018-04-14T01:59:23.177Z,63.67
2018-04-14T02:01:50.669Z,72.93
2018-04-14T02:04:18.909Z,70.17
2018-04-14T02:06:46.397Z,67.47
2018-04-14T02:09:14.642Z,67.20
2018-04-14T02:11:42.132Z,67.97
2018-04-14T02:14:10.397Z,73.83
2018-04-14T02:16:37.869Z,68.40
2018-04-14T02:19:06.126Z,68.17
2018-04-14T02:21:33.613Z,64.90
2018-04-14T02:24:01.102Z,61.13
2018-04-14T02:26:28.585Z,63.43
2018-04-14T02:28:56.059Z,61.43
2018-04-14T02:31:23.547Z,62.70
2018-04-14T02:33:51.802Z,67.13
2018-04-14T02:36:19.286Z,62.80
2018-04-14T02:38:46.761Z,61.10
2018-04-14T02:41:14.246Z,64.70
2018-04-14T02:43:41.728Z,62.70
2018-04-14T02:46:09.220Z,63.30
2018-04-14T02:48:37.457Z,62.80
2018-04-14T02:51:04.938Z,61.27
2018-04-14T02:53:33.177Z,61.00
2018-04-14T02:56:00.670Z,60.70
2018-04-14T02:58:28.920Z,62.30
2018-04-14T03:00:56.407Z,62.00
2018-04-14T03:03:23.877Z,60.60
2018-04-14T03:05:51.369Z,65.60
2018-04-14T03:08:18.848Z,62.37
2018-04-14T03:10:46.721Z,58.83
2018-04-14T03:13:14.211Z,65.57
2018-04-14T03:15:42.484Z,62.53
2018-04-14T03:18:09.964Z,61.83
2018-04-14T03:20:37.439Z,61.77
2018-04-14T03:23:04.928Z,62.10
2018-04-14T03:25:32.396Z,59.73
2018-04-14T03:27:59.887Z,61.10
2018-04-14T03:30:28.138Z,60.77
2018-04-14T03:32:55.618Z,58.17
2018-04-14T03:35:23.855Z,57.63
2018-04-14T03:37:51.354Z,59.87
2018-04-14T03:40:19.593Z,59.53
2018-04-14T03:42:47.076Z,61.13
2018-04-14T03:45:14.563Z,62.17
2018-04-14T03:47:42.048Z,64.53
2018-04-14T03:50:09.525Z,64.00
2018-04-14T03:52:37.005Z,66.77
2018-04-14T03:55:04.498Z,63.40
2018-04-14T03:57:31.986Z,64.67
2018-04-14T03:59:59.458Z,59.63
2018-04-14T04:02:26.936Z,60.20
2018-04-14T04:04:54.427Z,63.27
2018-04-14T04:07:22.690Z,64.23
2018-04-14T04:09:50.931Z,67.17
2018-04-14T04:12:18.424Z,61.53
2018-04-14T04:14:46.674Z,63.90
2018-04-14T04:17:14.157Z,66.63
2018-04-14T04:19:54.365Z,69.67
2018-04-14T04:22:33.727Z,67.00
2018-04-14T04:28:15.816Z,67.23
2018-04-14T04:30:44.036Z,69.03
2018-04-14T04:33:11.525Z,64.30
2018-04-14T04:35:39.753Z,68.93
2018-04-14T04:38:07.234Z,69.70
2018-04-14T04:40:34.736Z,69.70
2018-04-14T04:43:02.257Z,70.93
2018-04-14T04:45:29.773Z,69.27
2018-04-14T04:47:57.274Z,65.50
2018-04-14T04:50:24.749Z,63.77
2018-04-14T04:52:53.006Z,66.20
2018-04-14T04:55:20.479Z,66.20
2018-04-14T04:57:48.735Z,61.57
2018-04-14T05:00:16.205Z,64.47
2018-04-14T05:02:43.735Z,62.33
2018-04-14T05:05:11.218Z,65.60
2018-04-14T05:07:38.702Z,63.43
2018-04-14T05:10:06.947Z,61.47
2018-04-14T05:12:34.463Z,59.47
2018-04-14T05:15:01.946Z,58.03
2018-04-14T05:17:29.432Z,62.30
2018-04-14T05:19:56.905Z,61.70
2018-04-14T05:22:25.159Z,61.70
2018-04-14T05:24:52.637Z,61.13
2018-04-14T05:27:20.894Z,57.10
2018-04-14T05:29:48.374Z,59.30
2018-04-14T05:32:15.878Z,59.10
2018-04-14T05:34:43.366Z,59.33
2018-04-14T05:37:10.845Z,58.60
2018-04-14T05:39:38.312Z,57.67
2018-04-14T05:42:06.586Z,54.47
2018-04-14T05:44:34.852Z,59.17
2018-04-14T05:47:02.350Z,60.03
2018-04-14T05:49:29.834Z,58.47
2018-04-14T05:51:57.316Z,58.90
2018-04-14T05:54:25.143Z,58.67
2018-04-14T05:56:52.627Z,58.17
2018-04-14T05:59:20.125Z,57.27
2018-04-14T06:01:48.369Z,59.00
2018-04-14T06:04:15.848Z,55.20
2018-04-14T06:06:43.340Z,56.10
2018-04-14T06:09:10.878Z,54.40
2018-04-14T06:11:38.355Z,55.63
2018-04-14T06:14:06.616Z,53.97
2018-04-14T06:16:34.860Z,55.50
2018-04-14T06:19:02.339Z,55.07
2018-04-14T06:21:29.813Z,56.07
2018-04-14T06:23:58.062Z,51.87
2018-04-14T06:26:25.551Z,53.70
2018-04-14T06:28:53.790Z,56.57
2018-04-14T06:31:22.033Z,54.73
2018-04-14T06:33:49.546Z,53.67
2018-04-14T06:36:17.002Z,54.83
2018-04-14T06:38:44.489Z,57.17
2018-04-14T06:41:11.974Z,57.80
2018-04-14T06:43:39.462Z,53.70
2018-04-14T06:46:06.939Z,54.67
2018-04-14T06:48:34.435Z,54.53
2018-04-14T06:51:01.917Z,53.73
2018-04-14T06:53:29.412Z,53.87
2018-04-14T06:55:56.888Z,57.03
2018-04-14T06:58:25.133Z,54.80
2018-04-14T07:00:52.613Z,56.10
2018-04-14T07:03:20.094Z,52.70
2018-04-14T07:05:48.329Z,50.93
2018-04-14T07:08:15.826Z,50.13
2018-04-14T07:10:44.057Z,53.10
2018-04-14T07:13:11.539Z,52.27
2018-04-14T07:15:39.018Z,55.83
2018-04-14T07:18:07.269Z,49.73
2018-04-14T07:20:34.784Z,51.20
2018-04-14T07:23:02.273Z,51.00
2018-04-14T07:25:29.781Z,51.50
2018-04-14T07:27:57.258Z,49.97
2018-04-14T07:30:24.763Z,51.60
2018-04-14T07:32:52.246Z,48.77
2018-04-14T07:35:20.494Z,49.50
2018-04-14T07:37:47.980Z,50.17
2018-04-14T07:40:16.223Z,48.50
2018-04-14T07:42:43.716Z,50.23
2018-04-14T07:45:11.963Z,47.80
2018-04-14T07:47:39.452Z,49.80
2018-04-14T07:50:07.693Z,48.03
2018-04-14T07:52:35.175Z,48.00
2018-04-14T07:55:03.420Z,49.77
2018-04-14T07:57:30.897Z,47.13
2018-04-14T07:59:58.390Z,50.20
2018-04-14T08:02:26.634Z,51.13
2018-04-14T08:04:54.131Z,49.67
2018-04-14T08:07:21.610Z,50.80
2018-04-14T08:09:49.121Z,50.50
2018-04-14T08:12:16.613Z,49.60
2018-04-14T08:14:44.129Z,52.07
2018-04-14T08:17:11.626Z,48.37
2018-04-14T08:19:39.114Z,48.40
2018-04-14T08:22:06.900Z,51.67
2018-04-14T08:24:34.386Z,52.47
2018-04-14T08:27:02.631Z,49.20
2018-04-14T08:29:30.136Z,50.10
2018-04-14T08:31:58.546Z,50.47
2018-04-14T08:34:26.606Z,54.97
2018-04-14T08:36:55.161Z,51.10
2018-04-14T08:39:22.706Z,49.67
2018-04-14T08:41:50.190Z,49.40
2018-04-14T08:44:18.474Z,49.93
2018-04-14T08:46:46.712Z,49.90
2018-04-14T08:49:14.196Z,51.10
2018-04-14T08:51:42.429Z,49.20
2018-04-14T08:54:10.024Z,46.33
2018-04-14T08:56:38.361Z,44.77
2018-04-14T08:59:05.942Z,46.07
2018-04-14T09:01:34.229Z,41.63
2018-04-14T09:04:01.809Z,43.30
2018-04-14T09:06:29.477Z,39.57
2018-04-14T09:08:57.090Z,42.40
2018-04-14T09:11:24.589Z,42.97
2018-04-14T09:13:52.862Z,42.33
2018-04-14T09:16:21.081Z,43.37
2018-04-14T09:18:48.695Z,40.03
2018-04-14T09:21:16.164Z,43.37
2018-04-14T09:23:44.404Z,39.17
2018-04-14T09:26:12.909Z,38.63
2018-04-14T09:28:41.197Z,38.87
2018-04-14T09:31:09.449Z,37.97
2018-04-14T09:33:36.944Z,36.40
2018-04-14T09:36:05.300Z,35.90
2018-04-14T09:38:33.623Z,34.50
2018-04-14T09:41:01.158Z,33.97
2018-04-14T09:43:28.781Z,34.47
2018-04-14T09:45:56.404Z,37.13
2018-04-14T09:48:24.017Z,38.90
2018-04-14T09:50:52.357Z,36.80
2018-04-14T09:53:20.044Z,36.20
2018-04-14T09:55:48.373Z,37.37
2018-04-14T09:58:15.899Z,35.17
2018-04-14T10:00:49.038Z,38.83
2018-04-14T10:03:22.241Z,38.67
2018-04-14T10:05:49.727Z,39.67
2018-04-14T10:08:17.222Z,38.47
2018-04-14T10:10:44.718Z,35.30
2018-04-14T10:13:12.188Z,35.33
2018-04-14T10:15:39.672Z,34.97
2018-04-14T10:18:07.166Z,32.23
2018-04-14T10:20:35.422Z,34.67
2018-04-14T10:23:02.912Z,33.80
2018-04-14T10:25:30.390Z,34.07
2018-04-14T10:27:57.902Z,33.80
2018-04-14T10:30:25.398Z,32.17
2018-04-14T10:32:52.877Z,32.57
2018-04-14T10:35:20.424Z,30.33
2018-04-14T10:37:48.002Z,29.17
2018-04-14T10:40:16.219Z,27.60
2018-04-14T10:42:43.703Z,29.40
2018-04-14T10:45:11.973Z,28.03
2018-04-14T10:47:40.233Z,28.00
2018-04-14T10:50:08.514Z,27.53
2018-04-14T10:52:35.977Z,28.17
2018-04-14T10:55:03.513Z,28.50
2018-04-14T10:57:30.982Z,28.80
2018-04-14T10:59:58.486Z,29.27
2018-04-14T11:02:25.983Z,27.67
2018-04-14T11:04:54.249Z,29.27
2018-04-14T11:07:25.233Z,27.37
2018-04-14T11:09:53.504Z,24.60
2018-04-14T11:12:21.014Z,25.50
2018-04-14T11:14:49.205Z,25.93
2018-04-14T11:17:16.697Z,25.90
2018-04-14T11:19:44.203Z,23.77
2018-04-14T11:22:11.929Z,25.33
2018-04-14T11:24:40.198Z,27.80
2018-04-14T11:27:07.681Z,25.63
2018-04-14T11:29:35.180Z,26.67
2018-04-14T11:32:02.657Z,27.60
2018-04-14T11:34:30.231Z,27.47
2018-04-14T11:36:57.723Z,24.40
2018-04-14T11:39:25.220Z,25.63
2018-04-14T11:41:52.951Z,25.27
2018-04-14T11:44:20.454Z,25.27
2018-04-14T11:46:47.947Z,26.70
2018-04-14T11:49:16.189Z,25.87
2018-04-14T11:51:43.671Z,23.57
2018-04-14T11:54:11.173Z,25.17
2018-04-14T11:56:38.700Z,27.23
2018-04-14T11:59:06.942Z,26.57
2018-04-14T12:01:34.430Z,28.80
2018-04-14T12:04:02.610Z,27.23
2018-04-14T12:06:30.882Z,27.77
2018-04-14T12:08:58.354Z,26.30
2018-04-14T12:11:26.769Z,24.63
2018-04-14T12:13:54.261Z,26.10
2018-04-14T12:16:22.332Z,28.93
2018-04-14T12:18:49.827Z,26.83
2018-04-14T12:21:18.078Z,26.57
2018-04-14T12:23:45.578Z,28.40
2018-04-14T12:26:13.093Z,28.80
2018-04-14T12:28:40.583Z,25.90
2018-04-14T12:31:08.862Z,25.30
2018-04-14T12:33:37.106Z,24.30
2018-04-14T12:36:04.591Z,26.13
2018-04-14T12:38:32.820Z,24.13
2018-04-14T12:41:00.679Z,27.33
2018-04-14T12:43:28.217Z,24.00
2018-04-14T12:45:55.710Z,25.33
2018-04-14T12:48:23.196Z,24.00
2018-04-14T12:50:50.681Z,25.97
2018-04-14T12:53:18.923Z,24.77
2018-04-14T12:55:46.413Z,23.10
2018-04-14T12:58:14.667Z,24.23
2018-04-14T13:00:42.155Z,26.17
2018-04-14T13:03:09.685Z,26.27
2018-04-14T13:05:37.963Z,24.07
2018-04-14T13:08:05.445Z,25.67
2018-04-14T13:10:33.695Z,24.30
2018-04-14T13:13:01.237Z,22.50
2018-04-14T13:15:28.728Z,23.67
2018-04-14T13:17:56.996Z,23.30
2018-04-14T13:20:24.499Z,21.37
2018-04-14T13:22:51.995Z,21.57
2018-04-14T13:25:19.477Z,21.17
2018-04-14T13:27:46.941Z,24.13
2018-04-14T13:30:15.212Z,21.97
2018-04-14T13:32:43.468Z,22.97
2018-04-14T13:35:12.808Z,23.07
2018-04-14T13:37:41.131Z,23.63
2018-04-14T13:40:08.629Z,23.20
2018-04-14T13:42:36.129Z,23.43
2018-04-14T13:45:03.696Z,24.60
2018-04-14T13:47:31.177Z,22.50
2018-04-14T13:49:58.663Z,23.90
2018-04-14T13:52:26.141Z,24.73
2018-04-14T13:54:54.446Z,25.70
2018-04-14T13:57:22.665Z,25.63
2018-04-14T13:59:50.126Z,23.73
2018-04-14T14:02:17.669Z,24.97
2018-04-14T14:04:45.160Z,23.93
2018-04-14T14:07:12.650Z,24.73
2018-04-14T14:09:40.130Z,24.50
2018-04-14T14:12:07.679Z,24.93
2018-04-14T14:14:35.154Z,23.57
2018-04-14T14:17:02.644Z,24.87
2018-04-14T14:19:30.118Z,23.80
2018-04-14T14:21:58.382Z,24.73
2018-04-14T14:24:25.862Z,24.87
2018-04-14T14:26:54.114Z,24.40
2018-04-14T14:29:21.598Z,25.60
2018-04-14T14:31:49.866Z,24.80
2018-04-14T14:34:17.351Z,25.40
2018-04-14T14:36:44.828Z,22.70
2018-04-14T14:39:12.324Z,25.10
2018-04-14T14:41:39.824Z,25.73
2018-04-14T14:44:07.296Z,24.57
2018-04-14T14:46:34.814Z,25.40
2018-04-14T14:49:02.300Z,23.33
2018-04-14T14:51:29.803Z,24.43
2018-04-14T14:53:57.264Z,26.87
2018-04-14T14:56:24.744Z,26.73
2018-04-14T14:58:52.217Z,24.67
2018-04-14T15:01:20.472Z,24.73
2018-04-14T15:03:48.125Z,28.20
2018-04-14T15:06:15.681Z,26.37
2018-04-14T15:08:44.493Z,24.27
2018-04-14T15:11:12.007Z,25.93
2018-04-14T15:13:39.516Z,28.43
2018-04-14T15:16:08.592Z,28.70
2018-04-14T15:18:38.075Z,27.37
2018-04-14T15:21:06.383Z,27.67
2018-04-14T15:23:34.495Z,26.70
2018-04-14T15:26:02.066Z,28.93
2018-04-14T15:28:29.674Z,28.57
2018-04-14T15:30:57.253Z,28.27
2018-04-14T15:33:25.610Z,28.43
2018-04-14T15:35:53.194Z,28.60
2018-04-14T15:38:21.455Z,27.93
2018-04-14T15:40:49.067Z,27.63
2018-04-14T15:43:16.801Z,29.40
2018-04-14T15:45:44.458Z,27.50
2018-04-14T15:48:12.636Z,28.03
2018-04-14T15:50:40.703Z,27.57
2018-04-14T15:53:08.347Z,28.77
2018-04-14T15:55:35.940Z,29.20
2018-04-14T15:58:03.741Z,28.07
2018-04-14T16:00:31.300Z,28.90
2018-04-14T16:02:58.783Z,31.97
2018-04-14T16:05:26.333Z,27.83
2018-04-14T16:07:53.915Z,29.10
2018-04-14T16:10:21.535Z,27.13
2018-04-14T16:12:49.731Z,30.30
2018-04-14T16:15:17.301Z,29.70
2018-04-14T16:20:38.888Z,27.33
2018-04-14T16:23:07.158Z,32.23
2018-04-14T16:25:34.716Z,28.73
2018-04-14T16:28:03.141Z,28.90
2018-04-14T16:30:31.554Z,30.10
2018-04-14T16:32:59.853Z,29.90
2018-04-14T16:35:27.410Z,28.43
2018-04-14T16:37:55.088Z,28.13
2018-04-14T16:40:23.347Z,27.40
2018-04-14T16:42:50.842Z,31.57
2018-04-14T16:45:19.287Z,28.53
2018-04-14T16:47:47.635Z,30.10
2018-04-14T16:50:15.131Z,30.50
2018-04-14T16:52:42.615Z,32.90
2018-04-14T16:55:10.897Z,32.17
2018-04-14T16:57:38.458Z,32.00
2018-04-14T17:00:06.040Z,32.73
2018-04-14T17:02:33.668Z,32.83
2018-04-14T17:05:01.967Z,33.63
2018-04-14T17:07:29.565Z,31.97
2018-04-14T17:09:57.818Z,32.90
2018-04-14T17:12:25.431Z,33.23
2018-04-14T17:14:52.906Z,34.23
2018-04-14T17:17:21.972Z,36.70
2018-04-14T17:19:49.450Z,32.60
2018-04-14T17:22:17.216Z,33.13
2018-04-14T17:24:45.555Z,32.60
2018-04-14T17:27:13.149Z,35.00
2018-04-14T17:29:40.648Z,31.13
2018-04-14T17:32:08.186Z,33.90
2018-04-14T17:34:36.424Z,34.80
2018-04-14T17:37:03.919Z,33.20
2018-04-14T17:39:33.159Z,34.10
2018-04-14T17:42:00.871Z,34.10
2018-04-14T17:44:28.455Z,36.63
2018-04-14T17:46:58.511Z,36.30
2018-04-14T17:49:26.917Z,37.13
2018-04-14T17:51:54.512Z,34.87
2018-04-14T17:54:22.046Z,34.33
2018-04-14T17:56:49.580Z,38.03
2018-04-14T17:59:17.125Z,37.37
2018-04-14T18:01:44.729Z,36.93
2018-04-14T18:04:12.981Z,35.90
2018-04-14T18:06:40.523Z,36.67
2018-04-14T18:09:08.132Z,38.17
2018-04-14T18:11:35.743Z,38.77
2018-04-14T18:14:03.417Z,38.63
2018-04-14T18:16:31.028Z,35.90
2018-04-14T18:18:59.330Z,34.30
2018-04-14T18:21:26.997Z,34.20
2018-04-14T18:23:54.531Z,35.20
2018-04-14T18:26:22.011Z,35.33
2018-04-14T18:28:50.633Z,38.73
2018-04-14T18:31:18.455Z,40.30
2018-04-14T18:33:46.026Z,40.00
2018-04-14T18:36:13.493Z,37.00
2018-04-14T18:38:41.156Z,37.60
2018-04-14T18:41:08.696Z,40.77
2018-04-14T18:43:37.071Z,41.40
2018-04-14T18:46:04.856Z,38.23
2018-04-14T18:48:33.549Z,35.00
2018-04-14T18:51:01.133Z,40.03
2018-04-14T18:53:29.207Z,35.40
2018-04-14T18:55:57.397Z,38.03
2018-04-14T18:58:26.634Z,38.87
2018-04-14T19:00:54.898Z,33.80
2018-04-14T19:03:22.513Z,37.23
2018-04-14T19:05:50.026Z,34.93
2018-04-14T19:08:17.661Z,36.00
2018-04-14T19:10:45.172Z,36.57
2018-04-14T19:13:12.676Z,34.60
2018-04-14T19:15:41.781Z,35.50
2018-04-14T19:18:09.240Z,36.30
2018-04-14T19:20:37.443Z,36.20
2018-04-14T19:23:05.016Z,34.60
2018-04-14T19:25:32.553Z,39.10
2018-04-14T19:28:00.238Z,34.00
2018-04-14T19:30:27.853Z,32.37
2018-04-14T19:32:55.403Z,38.00
2018-04-14T19:35:23.017Z,35.30
2018-04-14T19:37:51.526Z,34.50
2018-04-14T19:40:19.035Z,33.47
2018-04-14T19:42:48.706Z,35.27
2018-04-14T19:45:16.317Z,33.80
2018-04-14T19:47:44.574Z,35.37
2018-04-14T19:50:12.050Z,39.17
2018-04-14T19:52:40.325Z,37.17
2018-04-14T19:55:08.595Z,34.90
2018-04-14T19:57:36.080Z,33.23
2018-04-14T20:00:05.250Z,35.73
2018-04-14T20:02:32.774Z,37.40
2018-04-14T20:05:00.271Z,36.03
2018-04-14T20:07:27.765Z,37.20
2018-04-14T20:09:55.301Z,39.00
2018-04-14T20:12:23.549Z,37.20
2018-04-14T20:14:51.024Z,35.40
2018-04-14T20:17:18.523Z,35.73
2018-04-14T20:19:46.024Z,35.30
2018-04-14T20:22:13.488Z,32.10
2018-04-14T20:24:41.005Z,33.30
2018-04-14T20:27:08.534Z,33.43
2018-04-14T20:29:36.779Z,33.43
2018-04-14T20:32:04.273Z,33.97
2018-04-14T20:34:31.786Z,35.50
2018-04-14T20:36:59.270Z,36.83
2018-04-14T20:39:26.780Z,37.10
2018-04-14T20:41:55.337Z,34.97
2018-04-14T20:44:23.608Z,33.13
2018-04-14T20:46:51.935Z,35.80
2018-04-14T20:49:19.406Z,34.50
2018-04-14T20:51:46.896Z,34.73
2018-04-14T20:54:14.393Z,33.27
2018-04-14T20:56:41.870Z,36.80
2018-04-14T20:59:09.387Z,32.77
2018-04-14T21:01:37.632Z,34.03
2018-04-14T21:04:05.109Z,32.43
2018-04-14T21:06:32.610Z,33.27
2018-04-14T21:09:00.082Z,33.57
2018-04-14T21:11:27.636Z,35.87
2018-04-14T21:13:55.125Z,39.43
2018-04-14T21:16:22.646Z,36.00
2018-04-14T21:18:50.141Z,32.03
2018-04-14T21:21:18.499Z,33.07
2018-04-14T21:23:45.982Z,34.57
2018-04-14T21:26:14.209Z,31.77
2018-04-14T21:28:41.738Z,35.20
2018-04-14T21:31:09.206Z,34.20
2018-04-14T21:33:37.472Z,35.43
2018-04-14T21:36:04.958Z,36.70
2018-04-14T21:38:32.451Z,37.80
2018-04-14T21:40:59.934Z,37.30
2018-04-14T21:43:27.414Z,34.83
2018-04-14T21:45:55.653Z,32.60
2018-04-14T21:48:23.124Z,32.83
2018-04-14T21:50:50.623Z,31.60
2018-04-14T21:53:18.864Z,31.63
2018-04-14T21:55:46.341Z,35.43
2018-04-14T21:58:13.823Z,36.87
2018-04-14T22:00:41.303Z,34.60
2018-04-14T22:03:08.786Z,34.57
2018-04-14T22:05:36.263Z,36.97
2018-04-14T22:08:03.746Z,36.70
2018-04-14T22:10:33.031Z,40.27
2018-04-14T22:13:00.531Z,35.03
2018-04-14T22:15:27.999Z,34.20
2018-04-14T22:17:55.486Z,36.90
2018-04-14T22:20:22.954Z,35.63
2018-04-14T22:22:50.438Z,35.30
2018-04-14T22:25:18.734Z,37.87
2018-04-14T22:27:46.175Z,37.00
2018-04-14T22:30:14.418Z,37.00
2018-04-14T22:32:41.888Z,37.40
2018-04-14T22:35:09.375Z,40.60
2018-04-14T22:37:37.662Z,40.30
2018-04-14T22:40:05.102Z,36.73
2018-04-14T22:42:33.387Z,37.00
2018-04-14T22:45:01.642Z,32.13
2018-04-14T22:47:29.920Z,34.60
2018-04-14T22:49:57.466Z,34.83
2018-04-14T22:52:24.932Z,34.10
2018-04-14T22:54:52.422Z,35.03
2018-04-14T22:57:19.889Z,30.20
2018-04-14T22:59:47.366Z,34.90
2018-04-14T23:02:14.829Z,35.33
2018-04-14T23:04:42.311Z,31.80
2018-04-14T23:07:09.802Z,32.33
2018-04-14T23:09:38.066Z,32.37
2018-04-14T23:12:05.545Z,33.10
2018-04-14T23:14:53.566Z,32.27
2018-04-14T23:17:21.042Z,28.27
2018-04-14T23:19:49.292Z,30.57
2018-04-14T23:22:16.781Z,33.90
2018-04-14T23:24:44.273Z,31.47
2018-04-14T23:27:11.736Z,32.83
2018-04-14T23:29:39.223Z,31.77
2018-04-14T23:32:06.706Z,31.03
2018-04-14T23:34:34.946Z,32.30
2018-04-14T23:37:02.417Z,34.80
2018-04-14T23:39:29.902Z,33.30
2018-04-14T23:41:58.297Z,34.83
2018-04-14T23:44:25.773Z,34.97
2018-04-14T23:46:53.249Z,32.07
2018-04-14T23:49:20.749Z,32.10
2018-04-14T23:51:48.993Z,31.30
2018-04-14T23:54:16.467Z,35.17
2018-04-14T23:56:43.943Z,29.00
2018-04-14T23:59:12.202Z,32.03
